createdAt,value
2023-01-23T00:01:53.542Z,22.80
2023-01-23T00:04:23.316Z,27.35
2023-01-23T00:06:52.993Z,41.83
2023-01-23T00:09:22.508Z,23.40
2023-01-23T00:11:52.027Z,35.97
2023-01-23T00:14:24.178Z,22.35
2023-01-23T00:16:53.913Z,25.45
2023-01-23T00:19:23.538Z,23.85
2023-01-23T00:21:53.093Z,25.65
2023-01-23T00:24:22.725Z,32.58
2023-01-23T00:26:52.284Z,32.20
2023-01-23T00:29:24.408Z,26.77
2023-01-23T00:31:53.993Z,26.90
2023-01-23T00:34:25.174Z,27.25
2023-01-23T00:36:54.682Z,43.53
2023-01-23T00:39:26.738Z,42.83
2023-01-23T00:41:56.273Z,33.70
2023-01-23T00:44:30.941Z,31.33
2023-01-23T00:47:00.696Z,39.15
2023-01-23T00:49:31.619Z,34.55
2023-01-23T00:52:01.756Z,30.85
2023-01-23T00:54:31.417Z,45.47
2023-01-23T00:57:00.968Z,39.15
2023-01-23T00:59:33.240Z,35.75
2023-01-23T01:02:02.808Z,51.60
2023-01-23T01:04:32.436Z,31.30
2023-01-23T01:07:05.760Z,53.70
2023-01-23T01:09:35.300Z,74.30
2023-01-23T01:12:04.957Z,38.88
2023-01-23T01:14:37.184Z,51.17
2023-01-23T01:17:07.167Z,37.30
2023-01-23T01:19:36.713Z,34.95
2023-01-23T01:22:06.303Z,59.60
2023-01-23T01:24:35.863Z,54.95
2023-01-23T01:27:05.550Z,47.92
2023-01-23T01:29:38.374Z,36.30
2023-01-23T01:32:08.146Z,55.78
2023-01-23T01:34:37.698Z,50.83
2023-01-23T01:37:07.232Z,45.72
2023-01-23T01:39:36.782Z,82.13
2023-01-23T01:42:06.708Z,69.75
2023-01-23T01:44:56.842Z,61.00
2023-01-23T01:47:26.717Z,30.20
2023-01-23T01:49:59.877Z,39.35
2023-01-23T01:52:30.037Z,38.03
2023-01-23T01:55:04.688Z,55.83
2023-01-23T01:57:38.287Z,35.10
2023-01-23T02:00:15.891Z,32.35
2023-01-23T02:02:50.705Z,33.53
2023-01-23T02:05:24.149Z,34.08
2023-01-23T02:07:59.885Z,31.85
2023-01-23T02:12:58.825Z,30.00
2023-01-23T02:15:30.960Z,32.20
2023-01-23T02:18:00.564Z,26.00
2023-01-23T02:20:31.442Z,39.60
2023-01-23T02:23:10.751Z,27.52
2023-01-23T02:25:47.725Z,36.83
2023-01-23T02:28:21.779Z,33.20
2023-01-23T02:30:52.223Z,27.10
2023-01-23T02:33:50.275Z,32.40
2023-01-23T02:36:21.670Z,35.08
2023-01-23T02:39:08.524Z,24.27
2023-01-23T02:41:41.937Z,31.75
2023-01-23T02:44:18.889Z,27.33
2023-01-23T02:46:54.214Z,28.05
2023-01-23T02:49:24.653Z,24.77
2023-01-23T02:51:55.459Z,22.85
2023-01-23T02:54:27.130Z,27.00
2023-01-23T02:56:57.270Z,30.13
2023-01-23T02:59:42.339Z,25.33
2023-01-23T03:02:12.426Z,32.97
2023-01-23T03:04:41.986Z,25.10
2023-01-23T03:07:11.576Z,29.33
2023-01-23T03:09:42.579Z,22.27
2023-01-23T03:12:12.183Z,22.95
2023-01-23T03:14:44.661Z,29.52
2023-01-23T03:17:14.988Z,26.27
2023-01-23T03:19:44.956Z,37.30
2023-01-23T03:22:14.865Z,29.50
2023-01-23T03:24:44.423Z,30.38
2023-01-23T03:27:14.015Z,36.95
2023-01-23T03:30:03.213Z,26.90
2023-01-23T03:32:33.039Z,31.80
2023-01-23T03:35:02.696Z,26.38
2023-01-23T03:37:32.474Z,30.85
2023-01-23T03:40:14.925Z,25.92
2023-01-23T03:42:45.283Z,36.47
2023-01-23T03:45:20.553Z,27.60
2023-01-23T03:47:50.196Z,22.80
2023-01-23T03:50:22.637Z,38.85
2023-01-23T03:52:52.242Z,24.60
2023-01-23T03:55:22.782Z,24.85
2023-01-23T03:57:52.487Z,22.27
2023-01-23T04:00:25.016Z,25.50
2023-01-23T04:03:04.886Z,24.15
2023-01-23T04:05:34.921Z,29.70
2023-01-23T04:08:05.305Z,24.83
2023-01-23T04:10:34.900Z,28.88
2023-01-23T04:13:08.308Z,34.25
2023-01-23T04:15:40.463Z,27.27
2023-01-23T04:18:10.282Z,35.78
2023-01-23T04:20:41.107Z,28.95
2023-01-23T04:23:10.665Z,26.63
2023-01-23T04:25:40.489Z,41.78
2023-01-23T04:28:14.720Z,27.92
2023-01-23T04:30:47.313Z,34.13
2023-01-23T04:33:24.477Z,40.35
2023-01-23T04:35:57.438Z,75.05
2023-01-23T04:38:30.240Z,61.50
2023-01-23T04:41:03.348Z,100.10
2023-01-23T04:43:38.656Z,69.60
2023-01-23T04:46:14.330Z,125.60
2023-01-23T04:49:04.067Z,179.82
2023-01-23T04:51:34.746Z,76.65
2023-01-23T04:54:04.571Z,85.50
2023-01-23T04:56:35.244Z,119.82
2023-01-23T04:59:06.717Z,198.25
2023-01-23T05:01:39.668Z,217.48
2023-01-23T05:04:09.421Z,263.90
2023-01-23T05:06:39.040Z,116.82
2023-01-23T05:09:09.867Z,233.60
2023-01-23T05:11:42.594Z,205.50
2023-01-23T05:14:14.883Z,236.80
2023-01-23T05:16:47.698Z,81.63
2023-01-23T05:19:21.792Z,230.23
2023-01-23T05:21:51.408Z,230.98
2023-01-23T05:24:24.017Z,144.55
2023-01-23T05:26:53.607Z,399.58
2023-01-23T05:29:23.525Z,238.18
2023-01-23T05:32:05.388Z,208.68
2023-01-23T05:34:40.879Z,164.45
2023-01-23T05:37:20.492Z,389.85
2023-01-23T05:39:54.242Z,78.55
2023-01-23T05:42:24.366Z,129.45
2023-01-23T05:45:05.037Z,78.15
2023-01-23T05:47:44.594Z,138.50
2023-01-23T05:50:19.307Z,236.13
2023-01-23T05:52:49.324Z,247.38
2023-01-23T05:55:19.594Z,108.88
2023-01-23T05:57:50.783Z,244.23
2023-01-23T06:00:35.311Z,76.22
2023-01-23T06:03:36.199Z,236.55
2023-01-23T06:06:24.132Z,73.90
2023-01-23T06:08:53.844Z,239.32
2023-01-23T06:11:23.483Z,78.55
2023-01-23T06:13:53.004Z,89.07
2023-01-23T06:16:22.712Z,87.25
2023-01-23T06:18:55.071Z,272.48
2023-01-23T06:21:24.724Z,105.57
2023-01-23T06:23:54.344Z,250.55
2023-01-23T06:26:24.063Z,139.98
2023-01-23T06:28:53.712Z,253.55
2023-01-23T06:31:24.030Z,199.77
2023-01-23T06:33:59.755Z,278.23
2023-01-23T06:36:34.532Z,218.18
2023-01-23T06:39:04.193Z,188.93
2023-01-23T06:41:40.467Z,96.10
2023-01-23T06:44:11.365Z,326.70
2023-01-23T06:46:41.142Z,212.73
2023-01-23T06:49:13.506Z,257.25
2023-01-23T06:51:43.132Z,79.50
2023-01-23T06:54:14.936Z,86.35
2023-01-23T06:56:44.737Z,279.08
2023-01-23T06:59:15.500Z,90.45
2023-01-23T07:01:45.525Z,66.43
2023-01-23T07:04:17.875Z,178.15
2023-01-23T07:06:50.009Z,238.80
2023-01-23T07:09:21.384Z,350.23
2023-01-23T07:12:03.081Z,317.30
2023-01-23T07:14:34.236Z,141.98
2023-01-23T07:17:03.899Z,132.05
2023-01-23T07:19:37.042Z,248.07
2023-01-23T07:24:40.044Z,89.10
2023-01-23T07:27:09.569Z,106.95
2023-01-23T07:29:39.097Z,276.42
2023-01-23T07:32:11.074Z,158.77
2023-01-23T07:34:46.204Z,131.77
2023-01-23T07:37:15.753Z,134.63
2023-01-23T07:39:45.613Z,211.70
2023-01-23T07:42:15.234Z,145.15
2023-01-23T07:44:44.824Z,190.70
2023-01-23T07:47:14.442Z,183.63
2023-01-23T07:49:46.590Z,145.80
2023-01-23T07:52:16.131Z,100.13
2023-01-23T07:54:45.643Z,356.63
2023-01-23T07:57:15.165Z,90.93
2023-01-23T07:59:44.708Z,128.90
2023-01-23T08:02:14.273Z,292.75
2023-01-23T08:04:46.378Z,111.82
2023-01-23T08:07:16.174Z,258.02
2023-01-23T08:09:45.871Z,148.60
2023-01-23T08:12:15.526Z,311.67
2023-01-23T08:14:45.050Z,131.93
2023-01-23T08:17:14.575Z,223.05
2023-01-23T08:19:46.711Z,153.10
2023-01-23T08:22:16.310Z,67.00
2023-01-23T08:24:46.137Z,174.43
2023-01-23T08:27:15.890Z,72.68
2023-01-23T08:29:45.630Z,94.43
2023-01-23T08:32:15.208Z,179.90
2023-01-23T08:34:47.357Z,89.93
2023-01-23T08:37:16.919Z,62.50
2023-01-23T08:39:46.439Z,77.80
2023-01-23T08:42:15.979Z,99.57
2023-01-23T08:44:50.790Z,114.47
2023-01-23T08:47:20.313Z,53.78
2023-01-23T08:49:52.523Z,141.35
2023-01-23T08:52:22.243Z,88.90
2023-01-23T08:54:51.933Z,72.78
2023-01-23T08:57:21.488Z,68.15
2023-01-23T08:59:51.032Z,62.38
2023-01-23T09:02:22.032Z,66.45
2023-01-23T09:04:54.392Z,62.53
2023-01-23T09:07:23.925Z,56.03
2023-01-23T09:09:55.045Z,278.33
2023-01-23T09:12:24.710Z,115.72
2023-01-23T09:14:54.800Z,82.88
2023-01-23T09:17:24.446Z,139.25
2023-01-23T09:19:58.195Z,133.65
2023-01-23T09:22:27.763Z,139.52
2023-01-23T09:24:57.357Z,271.17
2023-01-23T09:27:27.046Z,109.57
2023-01-23T09:29:56.706Z,159.80
2023-01-23T09:32:26.317Z,122.00
2023-01-23T09:34:58.506Z,154.70
2023-01-23T09:37:28.021Z,132.32
2023-01-23T09:39:57.586Z,87.82
2023-01-23T09:42:35.078Z,108.28
2023-01-23T09:45:08.577Z,118.10
2023-01-23T09:47:41.828Z,163.05
2023-01-23T09:50:20.986Z,78.75
2023-01-23T09:52:55.328Z,321.75
2023-01-23T09:55:31.655Z,196.15
2023-01-23T09:58:03.835Z,302.30
2023-01-23T10:00:36.569Z,138.13
2023-01-23T10:03:14.329Z,100.03
2023-01-23T10:05:56.378Z,80.57
2023-01-23T10:08:34.456Z,328.13
2023-01-23T10:11:08.319Z,353.83
2023-01-23T10:13:57.319Z,211.10
2023-01-23T10:16:50.378Z,246.93
2023-01-23T10:19:33.179Z,203.30
2023-01-23T10:22:22.564Z,119.75
2023-01-23T10:24:54.725Z,126.72
2023-01-23T10:27:25.953Z,160.60
2023-01-23T10:30:00.577Z,86.80
2023-01-23T10:35:27.753Z,114.60
2023-01-23T10:38:05.372Z,105.00
2023-01-23T10:40:47.475Z,175.02
2023-01-23T10:43:19.448Z,140.95
2023-01-23T10:45:50.508Z,264.67
2023-01-23T10:48:43.629Z,303.15
2023-01-23T10:51:29.522Z,349.38
2023-01-23T10:54:25.937Z,302.13
2023-01-23T10:57:01.188Z,193.70
2023-01-23T10:59:35.726Z,349.40
2023-01-23T11:02:22.731Z,352.88
2023-01-23T11:04:54.513Z,293.45
2023-01-23T11:07:26.402Z,313.40
2023-01-23T11:10:04.524Z,132.65
2023-01-23T11:12:35.815Z,105.50
2023-01-23T11:15:22.736Z,182.75
2023-01-23T11:17:53.419Z,77.68
2023-01-23T11:20:29.047Z,82.25
2023-01-23T11:23:05.289Z,92.25
2023-01-23T11:25:40.487Z,58.10
2023-01-23T11:28:25.640Z,83.05
2023-01-23T11:31:12.775Z,78.90
2023-01-23T11:33:52.209Z,53.53
2023-01-23T11:36:41.215Z,124.60
2023-01-23T11:39:20.731Z,41.95
2023-01-23T11:41:53.225Z,57.97
2023-01-23T11:44:25.517Z,69.05
2023-01-23T11:47:11.509Z,72.55
2023-01-23T11:50:04.855Z,84.65
2023-01-23T11:52:50.562Z,134.93
2023-01-23T11:55:43.602Z,136.27
2023-01-23T11:58:32.126Z,215.98
2023-01-23T12:01:12.254Z,121.65
2023-01-23T12:04:03.522Z,136.20
2023-01-23T12:06:42.202Z,167.10
2023-01-23T12:09:16.651Z,136.90
2023-01-23T12:12:01.834Z,130.57
2023-01-23T12:14:42.537Z,181.40
2023-01-23T12:17:21.021Z,162.73
2023-01-23T12:20:02.900Z,86.78
2023-01-23T12:22:48.559Z,116.10
2023-01-23T12:25:25.901Z,69.50
2023-01-23T12:28:01.230Z,106.20
2023-01-23T12:30:49.013Z,50.30
2023-01-23T12:33:37.939Z,58.55
2023-01-23T12:36:23.358Z,50.70
2023-01-23T12:39:05.726Z,49.15
2023-01-23T12:41:39.127Z,45.03
2023-01-23T12:44:15.253Z,67.80
2023-01-23T12:46:54.165Z,49.78
2023-01-23T12:49:29.815Z,37.70
2023-01-23T12:52:04.814Z,44.13
2023-01-23T12:54:40.536Z,45.50
2023-01-23T12:59:57.595Z,53.67
2023-01-23T13:02:41.588Z,50.38
2023-01-23T13:05:22.550Z,51.80
2023-01-23T13:08:01.724Z,55.97
2023-01-23T13:11:04.607Z,50.85
2023-01-23T13:13:35.682Z,54.70
2023-01-23T13:16:12.175Z,60.92
2023-01-23T13:19:07.630Z,51.67
2023-01-23T13:21:49.743Z,55.85
2023-01-23T13:24:47.575Z,44.15
2023-01-23T13:27:45.538Z,42.88
2023-01-23T13:30:43.656Z,51.60
2023-01-23T13:34:06.658Z,49.33
2023-01-23T13:36:42.511Z,52.50
2023-01-23T13:39:29.177Z,42.92
2023-01-23T13:42:29.542Z,58.22
2023-01-23T13:45:32.290Z,50.08
2023-01-23T14:20:20.243Z,123.70
2023-01-23T14:22:50.001Z,62.10
2023-01-23T14:25:21.147Z,43.05
2023-01-23T14:28:05.138Z,59.60
2023-01-23T14:30:34.708Z,48.88
2023-01-23T14:33:04.214Z,58.35
2023-01-23T14:35:35.890Z,55.10
2023-01-23T14:38:09.636Z,61.20
2023-01-23T14:40:50.681Z,51.70
2023-01-23T14:43:27.101Z,59.30
2023-01-23T14:46:03.272Z,67.65
2023-01-23T14:48:36.546Z,77.47
2023-01-23T14:51:20.386Z,49.08
2023-01-23T14:54:00.732Z,92.53
2023-01-23T14:56:34.448Z,85.20
2023-01-23T14:59:09.319Z,67.07
2023-01-23T15:01:39.226Z,179.70
2023-01-23T15:04:22.682Z,73.25
2023-01-23T15:06:55.535Z,78.20
2023-01-23T15:09:30.225Z,217.25
2023-01-23T15:12:07.593Z,284.55
2023-01-23T15:14:42.810Z,78.95
2023-01-23T15:17:17.675Z,235.60
2023-01-23T15:19:55.352Z,331.23
2023-01-23T15:22:30.056Z,151.27
2023-01-23T15:24:59.672Z,275.33
2023-01-23T15:27:33.681Z,116.57
2023-01-23T15:30:33.804Z,135.05
2023-01-23T15:33:07.273Z,78.32
2023-01-23T15:35:37.707Z,184.82
2023-01-23T15:38:09.709Z,450.23
2023-01-23T15:40:40.963Z,364.30
2023-01-23T15:43:15.618Z,283.50
2023-01-23T15:45:47.813Z,148.60
2023-01-23T15:48:17.432Z,181.95
2023-01-23T15:50:47.058Z,174.30
2023-01-23T15:53:17.706Z,123.60
2023-01-23T15:55:48.300Z,116.97
2023-01-23T15:58:19.443Z,337.23
2023-01-23T16:00:51.590Z,488.92
2023-01-23T16:03:21.172Z,125.18
2023-01-23T16:05:50.754Z,228.65
2023-01-23T16:08:23.386Z,487.08
2023-01-23T16:10:53.224Z,286.73
2023-01-23T16:13:22.762Z,204.07
2023-01-23T16:15:55.076Z,337.40
2023-01-23T16:18:25.212Z,180.40
2023-01-23T16:20:54.907Z,255.50
2023-01-23T16:23:27.925Z,174.07
2023-01-23T16:26:01.014Z,162.93
2023-01-23T16:28:32.497Z,138.07
2023-01-23T16:31:04.616Z,175.20
2023-01-23T16:33:34.201Z,298.33
2023-01-23T16:36:04.206Z,187.07
2023-01-23T16:38:34.157Z,192.68
2023-01-23T16:41:04.308Z,212.73
2023-01-23T16:43:35.521Z,185.80
2023-01-23T16:46:07.796Z,222.00
2023-01-23T16:48:37.480Z,134.02
2023-01-23T16:51:10.618Z,92.60
2023-01-23T16:53:43.686Z,117.05
2023-01-23T16:56:23.513Z,181.75
2023-01-23T16:58:53.913Z,179.05
2023-01-23T17:01:26.981Z,116.22
2023-01-23T17:04:00.246Z,130.13
2023-01-23T17:06:30.072Z,75.65
2023-01-23T17:08:59.679Z,163.77
2023-01-23T17:11:34.124Z,109.30
2023-01-23T17:14:06.961Z,101.93
2023-01-23T17:16:39.673Z,253.75
2023-01-23T17:19:18.506Z,60.20
2023-01-23T17:21:48.439Z,84.57
2023-01-23T17:24:19.691Z,75.78
2023-01-23T17:26:49.278Z,59.30
2023-01-23T17:29:19.942Z,122.15
2023-01-23T17:31:53.251Z,161.15
2023-01-23T17:34:25.580Z,188.23
2023-01-23T17:36:57.066Z,96.95
2023-01-23T17:39:26.739Z,100.50
2023-01-23T17:41:56.316Z,120.00
2023-01-23T17:44:25.857Z,64.07
2023-01-23T17:46:58.302Z,56.35
2023-01-23T17:49:31.605Z,71.68
2023-01-23T17:52:02.349Z,50.78
2023-01-23T17:54:33.016Z,61.33
2023-01-23T17:57:02.654Z,57.22
2023-01-23T17:59:32.599Z,46.88
2023-01-23T18:02:04.817Z,85.07
2023-01-23T18:04:34.945Z,56.95
2023-01-23T18:07:04.540Z,104.80
2023-01-23T18:09:34.340Z,138.07
2023-01-23T18:12:05.829Z,54.65
2023-01-23T18:14:45.220Z,70.55
2023-01-23T18:17:36.109Z,54.58
2023-01-23T18:20:06.903Z,54.80
2023-01-23T18:22:37.176Z,79.68
2023-01-23T18:25:07.904Z,70.03
2023-01-23T18:27:41.523Z,121.72
2023-01-23T18:30:23.756Z,77.40
2023-01-23T18:33:07.361Z,98.97
2023-01-23T18:35:54.501Z,105.95
2023-01-23T18:38:31.064Z,110.78
2023-01-23T18:41:10.907Z,74.30
2023-01-23T18:43:43.782Z,93.93
2023-01-23T18:46:16.399Z,75.80
2023-01-23T18:48:50.598Z,87.72
2023-01-23T18:51:35.203Z,80.03
2023-01-23T18:54:14.770Z,93.28
2023-01-23T18:56:52.159Z,77.68
2023-01-23T18:59:29.270Z,97.28
2023-01-23T19:02:12.276Z,51.95
2023-01-23T19:04:51.491Z,107.32
2023-01-23T19:07:22.969Z,63.40
2023-01-23T19:09:53.173Z,177.52
2023-01-23T19:12:31.343Z,67.18
2023-01-23T19:15:10.193Z,78.53
2023-01-23T19:17:48.992Z,118.65
2023-01-23T19:20:33.001Z,84.20
2023-01-23T19:23:15.016Z,61.85
2023-01-23T19:25:47.909Z,52.58
2023-01-23T19:28:18.176Z,78.60
2023-01-23T19:30:48.605Z,64.72
2023-01-23T19:33:19.462Z,77.15
2023-01-23T19:35:54.939Z,98.03
2023-01-23T19:38:24.485Z,101.82
2023-01-23T19:40:54.089Z,61.33
2023-01-23T19:43:24.073Z,92.60
2023-01-23T19:45:53.606Z,81.50
2023-01-23T19:48:23.190Z,61.63
2023-01-23T19:50:55.327Z,101.70
2023-01-23T19:53:24.896Z,104.78
2023-01-23T19:55:56.332Z,55.60
2023-01-23T19:58:25.928Z,51.13
2023-01-23T20:00:55.612Z,59.97
2023-01-23T20:03:25.204Z,118.60
2023-01-23T20:05:59.635Z,72.20
2023-01-23T20:08:29.266Z,107.32
2023-01-23T20:10:58.781Z,73.45
2023-01-23T20:13:28.354Z,108.97
2023-01-23T20:15:57.970Z,66.60
2023-01-23T20:18:27.507Z,149.68
2023-01-23T20:21:03.410Z,119.45
2023-01-23T20:23:32.936Z,61.50
2023-01-23T20:26:03.348Z,75.30
2023-01-23T20:28:33.050Z,71.65
2023-01-23T20:31:06.734Z,73.65
2023-01-23T20:33:36.985Z,76.28
2023-01-23T20:36:10.953Z,57.00
2023-01-23T20:38:41.035Z,84.03
2023-01-23T20:41:12.557Z,57.97
2023-01-23T20:43:42.906Z,73.75
2023-01-23T20:46:13.307Z,56.42
2023-01-23T20:48:44.407Z,61.53
2023-01-23T20:51:18.416Z,55.25
2023-01-23T20:53:48.429Z,41.45
2023-01-23T20:56:19.812Z,42.75
2023-01-23T20:59:03.852Z,42.47
2023-01-23T21:01:57.200Z,43.92
2023-01-23T21:04:29.798Z,52.03
2023-01-23T21:07:02.366Z,56.47
2023-01-23T21:09:32.202Z,60.65
2023-01-23T21:12:01.760Z,52.58
2023-01-23T21:14:32.045Z,59.30
2023-01-23T21:17:01.654Z,43.22
2023-01-23T21:19:31.161Z,59.67
2023-01-23T21:22:03.338Z,70.28
2023-01-23T21:24:38.460Z,67.88
2023-01-23T21:27:09.878Z,54.25
2023-01-23T21:29:40.917Z,68.80
2023-01-23T21:32:10.507Z,50.95
2023-01-23T21:34:40.080Z,74.72
2023-01-23T21:37:13.069Z,48.20
2023-01-23T21:39:42.579Z,79.30
2023-01-23T21:42:12.120Z,51.40
2023-01-23T21:44:41.655Z,55.72
2023-01-23T21:47:11.241Z,69.18
2023-01-23T21:49:40.887Z,55.95
2023-01-23T21:52:13.007Z,64.90
2023-01-23T21:54:43.233Z,92.88
2023-01-23T21:57:12.750Z,54.63
2023-01-23T22:00:02.698Z,56.45
2023-01-23T22:02:39.302Z,65.40
2023-01-23T22:05:09.960Z,75.05
2023-01-23T22:07:42.073Z,57.22
2023-01-23T22:10:12.889Z,67.38
2023-01-23T22:12:42.497Z,79.43
2023-01-23T22:15:13.277Z,63.58
2023-01-23T22:17:42.856Z,54.63
2023-01-23T22:20:14.416Z,46.15
2023-01-23T22:22:46.526Z,53.30
2023-01-23T22:25:16.082Z,55.00
2023-01-23T22:27:45.629Z,46.50
2023-01-23T22:30:16.071Z,47.55
2023-01-23T22:32:45.585Z,48.17
2023-01-23T22:35:15.117Z,43.90
2023-01-23T22:37:47.221Z,51.40
2023-01-23T22:40:16.746Z,46.45
2023-01-23T22:42:46.253Z,44.42
2023-01-23T22:45:15.759Z,42.83
2023-01-23T22:47:45.278Z,48.85
2023-01-23T22:50:16.790Z,49.88
2023-01-23T22:52:49.398Z,49.65
2023-01-23T22:55:19.644Z,45.53
2023-01-23T22:57:49.339Z,50.97
2023-01-23T23:00:19.513Z,44.38
2023-01-23T23:02:49.046Z,44.45
2023-01-23T23:05:18.754Z,49.58
2023-01-23T23:07:51.040Z,47.10
2023-01-23T23:10:20.645Z,56.33
2023-01-23T23:12:50.230Z,50.65
2023-01-23T23:15:20.123Z,50.10
2023-01-23T23:17:49.971Z,48.10
2023-01-23T23:20:19.986Z,46.88
2023-01-23T23:22:52.145Z,46.70
2023-01-23T23:25:22.003Z,47.13
2023-01-23T23:27:51.733Z,50.63
2023-01-23T23:30:21.565Z,54.38
2023-01-23T23:32:51.144Z,59.33
2023-01-23T23:35:20.940Z,47.20
2023-01-23T23:37:53.143Z,46.47
2023-01-23T23:40:22.919Z,42.47
2023-01-23T23:42:52.503Z,46.67
2023-01-23T23:45:22.341Z,45.35
2023-01-23T23:47:51.994Z,54.92
2023-01-23T23:50:21.749Z,49.05
2023-01-23T23:52:53.867Z,48.00
2023-01-23T23:55:23.676Z,51.00
2023-01-23T23:57:53.289Z,49.13
